sensor_id;sensor_type;location;lat;lon;timestamp;temperature;humidity
6054;DHT22;3055;50.886;14.814;2023-03-16T00:00:46;-2.00;99.90
6054;DHT22;3055;50.886;14.814;2023-03-16T00:03:14;-2.00;99.90
6054;DHT22;3055;50.886;14.814;2023-03-16T00:05:44;-2.00;99.90
6054;DHT22;3055;50.886;14.814;2023-03-16T00:08:12;-2.00;99.90
6054;DHT22;3055;50.886;14.814;2023-03-16T00:10:39;-2.00;99.90
6054;DHT22;3055;50.886;14.814;2023-03-16T00:13:13;-2.00;99.90
6054;DHT22;3055;50.886;14.814;2023-03-16T00:15:40;-2.10;99.90
6054;DHT22;3055;50.886;14.814;2023-03-16T00:18:07;-2.00;99.90
6054;DHT22;3055;50.886;14.814;2023-03-16T00:20:34;-2.10;99.90
6054;DHT22;3055;50.886;14.814;2023-03-16T00:23:01;-2.10;99.90
6054;DHT22;3055;50.886;14.814;2023-03-16T00:25:28;-2.10;99.90
6054;DHT22;3055;50.886;14.814;2023-03-16T00:27:58;-2.10;99.90
6054;DHT22;3055;50.886;14.814;2023-03-16T00:30:29;-2.10;99.90
6054;DHT22;3055;50.886;14.814;2023-03-16T00:32:57;-2.10;99.90
6054;DHT22;3055;50.886;14.814;2023-03-16T00:35:24;-2.10;99.90
6054;DHT22;3055;50.886;14.814;2023-03-16T00:37:51;-2.00;99.90
6054;DHT22;3055;50.886;14.814;2023-03-16T00:40:22;-1.90;99.90
6054;DHT22;3055;50.886;14.814;2023-03-16T00:42:49;-1.80;99.90
6054;DHT22;3055;50.886;14.814;2023-03-16T00:45:16;-1.80;99.90
6054;DHT22;3055;50.886;14.814;2023-03-16T00:47:44;-1.80;99.90
6054;DHT22;3055;50.886;14.814;2023-03-16T00:50:11;-1.80;99.90
6054;DHT22;3055;50.886;14.814;2023-03-16T00:52:39;-1.80;99.90
6054;DHT22;3055;50.886;14.814;2023-03-16T00:55:07;-1.80;99.90
6054;DHT22;3055;50.886;14.814;2023-03-16T00:57:34;-1.80;99.90
6054;DHT22;3055;50.886;14.814;2023-03-16T01:00:02;-1.70;99.90
6054;DHT22;3055;50.886;14.814;2023-03-16T01:02:37;-1.80;99.90
6054;DHT22;3055;50.886;14.814;2023-03-16T01:05:07;-1.80;99.90
6054;DHT22;3055;50.886;14.814;2023-03-16T01:07:34;-1.80;99.90
6054;DHT22;3055;50.886;14.814;2023-03-16T01:10:01;-1.90;99.90
6054;DHT22;3055;50.886;14.814;2023-03-16T01:12:28;-1.90;99.90
6054;DHT22;3055;50.886;14.814;2023-03-16T01:14:56;-1.80;99.90
6054;DHT22;3055;50.886;14.814;2023-03-16T01:17:23;-1.90;99.90
6054;DHT22;3055;50.886;14.814;2023-03-16T01:19:50;-1.80;99.90
6054;DHT22;3055;50.886;14.814;2023-03-16T01:22:19;-1.90;99.90
6054;DHT22;3055;50.886;14.814;2023-03-16T01:24:46;-2.00;99.90
6054;DHT22;3055;50.886;14.814;2023-03-16T01:27:13;-2.00;99.90
6054;DHT22;3055;50.886;14.814;2023-03-16T01:29:41;-2.00;99.90
6054;DHT22;3055;50.886;14.814;2023-03-16T01:32:09;-2.10;99.90
6054;DHT22;3055;50.886;14.814;2023-03-16T01:34:36;-2.10;99.90
6054;DHT22;3055;50.886;14.814;2023-03-16T01:37:03;-2.10;99.90
6054;DHT22;3055;50.886;14.814;2023-03-16T01:39:32;-2.10;99.90
6054;DHT22;3055;50.886;14.814;2023-03-16T01:41:59;-2.10;99.90
6054;DHT22;3055;50.886;14.814;2023-03-16T01:44:27;-2.10;99.90
6054;DHT22;3055;50.886;14.814;2023-03-16T01:46:57;-2.10;99.90
6054;DHT22;3055;50.886;14.814;2023-03-16T01:49:27;-2.20;99.90
6054;DHT22;3055;50.886;14.814;2023-03-16T01:51:57;-2.10;99.90
6054;DHT22;3055;50.886;14.814;2023-03-16T01:54:29;-2.10;99.90
6054;DHT22;3055;50.886;14.814;2023-03-16T01:57:02;-2.10;99.90
6054;DHT22;3055;50.886;14.814;2023-03-16T01:59:36;-2.10;99.90
6054;DHT22;3055;50.886;14.814;2023-03-16T02:02:05;-2.20;99.90
6054;DHT22;3055;50.886;14.814;2023-03-16T02:04:45;-2.30;99.90
6054;DHT22;3055;50.886;14.814;2023-03-16T02:07:15;-2.40;99.90
6054;DHT22;3055;50.886;14.814;2023-03-16T02:09:45;-2.40;99.90
6054;DHT22;3055;50.886;14.814;2023-03-16T02:12:15;-2.40;99.90
6054;DHT22;3055;50.886;14.814;2023-03-16T02:14:44;-2.40;99.90
6054;DHT22;3055;50.886;14.814;2023-03-16T02:17:12;-2.40;99.90
6054;DHT22;3055;50.886;14.814;2023-03-16T02:19:48;-2.40;99.90
6054;DHT22;3055;50.886;14.814;2023-03-16T02:22:19;-2.40;99.90
6054;DHT22;3055;50.886;14.814;2023-03-16T02:24:49;-2.50;99.90
6054;DHT22;3055;50.886;14.814;2023-03-16T02:27:25;-2.50;99.90
6054;DHT22;3055;50.886;14.814;2023-03-16T02:30:04;-2.40;99.90
6054;DHT22;3055;50.886;14.814;2023-03-16T02:32:32;-2.40;99.90
6054;DHT22;3055;50.886;14.814;2023-03-16T02:35:00;-2.50;99.90
6054;DHT22;3055;50.886;14.814;2023-03-16T02:37:28;-2.50;99.90
6054;DHT22;3055;50.886;14.814;2023-03-16T02:39:58;-2.40;99.90
6054;DHT22;3055;50.886;14.814;2023-03-16T02:42:26;-2.40;99.90
6054;DHT22;3055;50.886;14.814;2023-03-16T02:44:55;-2.50;99.90
6054;DHT22;3055;50.886;14.814;2023-03-16T02:47:29;-2.60;99.90
6054;DHT22;3055;50.886;14.814;2023-03-16T02:49:58;-2.60;99.90
6054;DHT22;3055;50.886;14.814;2023-03-16T02:52:25;-2.70;99.90
6054;DHT22;3055;50.886;14.814;2023-03-16T02:54:52;-2.60;99.90
6054;DHT22;3055;50.886;14.814;2023-03-16T02:57:19;-2.70;99.90
6054;DHT22;3055;50.886;14.814;2023-03-16T02:59:46;-2.70;99.90
6054;DHT22;3055;50.886;14.814;2023-03-16T03:02:13;-2.80;99.90
6054;DHT22;3055;50.886;14.814;2023-03-16T03:04:42;-2.50;99.90
6054;DHT22;3055;50.886;14.814;2023-03-16T03:07:11;-2.50;99.90
6054;DHT22;3055;50.886;14.814;2023-03-16T03:09:39;-2.60;99.90
6054;DHT22;3055;50.886;14.814;2023-03-16T03:12:08;-2.70;99.90
6054;DHT22;3055;50.886;14.814;2023-03-16T03:14:36;-2.70;99.90
6054;DHT22;3055;50.886;14.814;2023-03-16T03:17:03;-2.80;99.90
6054;DHT22;3055;50.886;14.814;2023-03-16T03:19:32;-2.80;99.90
6054;DHT22;3055;50.886;14.814;2023-03-16T03:22:01;-2.80;99.90
6054;DHT22;3055;50.886;14.814;2023-03-16T03:24:31;-2.70;99.90
6054;DHT22;3055;50.886;14.814;2023-03-16T03:26:58;-2.60;99.90
6054;DHT22;3055;50.886;14.814;2023-03-16T03:29:28;-2.60;99.90
6054;DHT22;3055;50.886;14.814;2023-03-16T03:31:59;-2.50;99.90
6054;DHT22;3055;50.886;14.814;2023-03-16T03:34:26;-2.50;99.90
6054;DHT22;3055;50.886;14.814;2023-03-16T03:36:53;-2.60;99.90
6054;DHT22;3055;50.886;14.814;2023-03-16T03:39:22;-2.70;99.90
6054;DHT22;3055;50.886;14.814;2023-03-16T03:41:49;-2.70;99.90
6054;DHT22;3055;50.886;14.814;2023-03-16T03:44:19;-2.80;99.90
6054;DHT22;3055;50.886;14.814;2023-03-16T03:46:46;-2.90;99.90
6054;DHT22;3055;50.886;14.814;2023-03-16T03:49:13;-2.90;99.90
6054;DHT22;3055;50.886;14.814;2023-03-16T03:51:41;-2.80;99.90
6054;DHT22;3055;50.886;14.814;2023-03-16T03:54:08;-2.80;99.90
6054;DHT22;3055;50.886;14.814;2023-03-16T03:56:37;-2.80;99.90
6054;DHT22;3055;50.886;14.814;2023-03-16T03:59:04;-2.70;99.90
6054;DHT22;3055;50.886;14.814;2023-03-16T04:01:31;-2.70;99.90
6054;DHT22;3055;50.886;14.814;2023-03-16T04:03:58;-2.70;99.90
6054;DHT22;3055;50.886;14.814;2023-03-16T04:06:25;-2.70;99.90
6054;DHT22;3055;50.886;14.814;2023-03-16T04:08:52;-2.80;99.90
6054;DHT22;3055;50.886;14.814;2023-03-16T04:11:20;-2.90;99.90
6054;DHT22;3055;50.886;14.814;2023-03-16T04:13:50;-2.80;99.90
6054;DHT22;3055;50.886;14.814;2023-03-16T04:16:18;-2.90;99.90
6054;DHT22;3055;50.886;14.814;2023-03-16T04:18:45;-3.00;99.90
6054;DHT22;3055;50.886;14.814;2023-03-16T04:21:14;-3.00;99.90
6054;DHT22;3055;50.886;14.814;2023-03-16T04:23:42;-2.80;99.90
6054;DHT22;3055;50.886;14.814;2023-03-16T04:26:09;-2.70;99.90
6054;DHT22;3055;50.886;14.814;2023-03-16T04:28:36;-2.70;99.90
6054;DHT22;3055;50.886;14.814;2023-03-16T04:31:07;-2.80;99.90
6054;DHT22;3055;50.886;14.814;2023-03-16T04:33:35;-2.90;99.90
6054;DHT22;3055;50.886;14.814;2023-03-16T04:36:04;-2.80;99.90
6054;DHT22;3055;50.886;14.814;2023-03-16T04:38:32;-2.70;99.90
6054;DHT22;3055;50.886;14.814;2023-03-16T04:40:59;-2.70;99.90
6054;DHT22;3055;50.886;14.814;2023-03-16T04:43:28;-2.60;99.90
6054;DHT22;3055;50.886;14.814;2023-03-16T04:45:59;-2.60;99.90
6054;DHT22;3055;50.886;14.814;2023-03-16T04:48:27;-2.60;99.90
6054;DHT22;3055;50.886;14.814;2023-03-16T04:50:54;-2.70;99.90
6054;DHT22;3055;50.886;14.814;2023-03-16T04:53:21;-2.80;99.90
6054;DHT22;3055;50.886;14.814;2023-03-16T04:55:49;-2.80;99.90
6054;DHT22;3055;50.886;14.814;2023-03-16T04:58:16;-2.90;99.90
6054;DHT22;3055;50.886;14.814;2023-03-16T05:00:43;-2.90;99.90
6054;DHT22;3055;50.886;14.814;2023-03-16T05:03:10;-2.80;99.90
6054;DHT22;3055;50.886;14.814;2023-03-16T05:05:39;-2.70;99.90
6054;DHT22;3055;50.886;14.814;2023-03-16T05:08:07;-2.70;99.90
6054;DHT22;3055;50.886;14.814;2023-03-16T05:10:35;-2.70;99.90
6054;DHT22;3055;50.886;14.814;2023-03-16T05:13:03;-2.80;99.90
6054;DHT22;3055;50.886;14.814;2023-03-16T05:15:31;-2.80;99.90
6054;DHT22;3055;50.886;14.814;2023-03-16T05:17:58;-2.80;99.90
6054;DHT22;3055;50.886;14.814;2023-03-16T05:20:26;-2.70;99.90
6054;DHT22;3055;50.886;14.814;2023-03-16T05:22:54;-2.70;99.90
6054;DHT22;3055;50.886;14.814;2023-03-16T05:25:21;-2.70;99.90
6054;DHT22;3055;50.886;14.814;2023-03-16T05:27:50;-2.70;99.90
6054;DHT22;3055;50.886;14.814;2023-03-16T05:30:18;-2.80;99.90
6054;DHT22;3055;50.886;14.814;2023-03-16T05:32:45;-2.80;99.90
6054;DHT22;3055;50.886;14.814;2023-03-16T05:35:13;-2.80;99.90
6054;DHT22;3055;50.886;14.814;2023-03-16T05:37:40;-2.80;99.90
6054;DHT22;3055;50.886;14.814;2023-03-16T05:40:11;-2.70;99.90
6054;DHT22;3055;50.886;14.814;2023-03-16T05:42:42;-2.80;99.90
6054;DHT22;3055;50.886;14.814;2023-03-16T05:45:10;-2.70;99.90
6054;DHT22;3055;50.886;14.814;2023-03-16T05:47:37;-2.60;99.90
6054;DHT22;3055;50.886;14.814;2023-03-16T05:50:06;-2.50;99.90
6054;DHT22;3055;50.886;14.814;2023-03-16T05:52:36;-2.50;99.90
6054;DHT22;3055;50.886;14.814;2023-03-16T05:55:03;-2.40;99.90
6054;DHT22;3055;50.886;14.814;2023-03-16T05:57:33;-2.30;99.90
6054;DHT22;3055;50.886;14.814;2023-03-16T06:00:00;-2.30;99.90
6054;DHT22;3055;50.886;14.814;2023-03-16T06:02:36;-2.20;99.90
6054;DHT22;3055;50.886;14.814;2023-03-16T06:05:04;-2.20;99.90
6054;DHT22;3055;50.886;14.814;2023-03-16T06:07:32;-2.20;99.90
6054;DHT22;3055;50.886;14.814;2023-03-16T06:09:59;-2.20;99.90
6054;DHT22;3055;50.886;14.814;2023-03-16T06:12:26;-2.10;99.90
6054;DHT22;3055;50.886;14.814;2023-03-16T06:14:54;-2.00;99.90
6054;DHT22;3055;50.886;14.814;2023-03-16T06:17:22;-1.90;99.90
6054;DHT22;3055;50.886;14.814;2023-03-16T06:19:49;-1.80;99.90
6054;DHT22;3055;50.886;14.814;2023-03-16T06:22:16;-1.60;99.90
6054;DHT22;3055;50.886;14.814;2023-03-16T06:24:43;-1.50;99.90
6054;DHT22;3055;50.886;14.814;2023-03-16T06:27:11;-1.40;99.90
6054;DHT22;3055;50.886;14.814;2023-03-16T06:29:38;-1.30;99.90
6054;DHT22;3055;50.886;14.814;2023-03-16T06:32:07;-1.20;99.90
6054;DHT22;3055;50.886;14.814;2023-03-16T06:34:34;-1.00;99.90
6054;DHT22;3055;50.886;14.814;2023-03-16T06:37:02;-0.90;99.90
6054;DHT22;3055;50.886;14.814;2023-03-16T06:39:29;-0.80;99.90
6054;DHT22;3055;50.886;14.814;2023-03-16T06:41:56;-0.70;99.90
6054;DHT22;3055;50.886;14.814;2023-03-16T06:44:23;-0.50;99.90
6054;DHT22;3055;50.886;14.814;2023-03-16T06:46:50;-0.40;99.90
6054;DHT22;3055;50.886;14.814;2023-03-16T06:49:19;-0.30;99.90
6054;DHT22;3055;50.886;14.814;2023-03-16T06:51:46;-0.10;99.90
6054;DHT22;3055;50.886;14.814;2023-03-16T06:54:13;0.00;99.90
6054;DHT22;3055;50.886;14.814;2023-03-16T06:56:40;0.20;99.90
6054;DHT22;3055;50.886;14.814;2023-03-16T06:59:07;0.30;99.90
6054;DHT22;3055;50.886;14.814;2023-03-16T07:01:34;0.40;99.90
6054;DHT22;3055;50.886;14.814;2023-03-16T07:04:01;0.50;99.90
6054;DHT22;3055;50.886;14.814;2023-03-16T07:06:30;0.70;99.90
6054;DHT22;3055;50.886;14.814;2023-03-16T07:08:57;0.80;99.90
6054;DHT22;3055;50.886;14.814;2023-03-16T07:11:26;0.90;99.90
6054;DHT22;3055;50.886;14.814;2023-03-16T07:13:53;1.10;99.90
6054;DHT22;3055;50.886;14.814;2023-03-16T07:16:20;1.20;99.90
6054;DHT22;3055;50.886;14.814;2023-03-16T07:18:47;1.40;99.90
6054;DHT22;3055;50.886;14.814;2023-03-16T07:21:14;1.50;99.90
6054;DHT22;3055;50.886;14.814;2023-03-16T07:23:42;1.70;99.90
6054;DHT22;3055;50.886;14.814;2023-03-16T07:26:10;1.90;99.90
6054;DHT22;3055;50.886;14.814;2023-03-16T07:28:38;2.00;99.90
6054;DHT22;3055;50.886;14.814;2023-03-16T07:31:05;2.20;99.90
6054;DHT22;3055;50.886;14.814;2023-03-16T07:33:34;2.30;99.90
6054;DHT22;3055;50.886;14.814;2023-03-16T07:36:01;2.40;99.90
6054;DHT22;3055;50.886;14.814;2023-03-16T07:38:30;2.60;99.90
6054;DHT22;3055;50.886;14.814;2023-03-16T07:40:59;2.70;24.90
6054;DHT22;3055;50.886;14.814;2023-03-16T07:43:27;2.80;1.00
6054;DHT22;3055;50.886;14.814;2023-03-16T07:45:54;2.90;99.90
6054;DHT22;3055;50.886;14.814;2023-03-16T07:48:22;3.10;42.90
6054;DHT22;3055;50.886;14.814;2023-03-16T07:50:49;3.30;47.50
6054;DHT22;3055;50.886;14.814;2023-03-16T07:53:17;3.40;1.00
6054;DHT22;3055;50.886;14.814;2023-03-16T07:55:45;3.60;1.00
6054;DHT22;3055;50.886;14.814;2023-03-16T07:58:14;3.70;1.00
6054;DHT22;3055;50.886;14.814;2023-03-16T08:00:41;3.80;1.00
6054;DHT22;3055;50.886;14.814;2023-03-16T08:03:08;4.00;1.00
6054;DHT22;3055;50.886;14.814;2023-03-16T08:05:35;4.20;1.00
6054;DHT22;3055;50.886;14.814;2023-03-16T08:08:02;4.30;1.00
6054;DHT22;3055;50.886;14.814;2023-03-16T08:10:29;4.50;1.00
6054;DHT22;3055;50.886;14.814;2023-03-16T08:12:58;4.70;99.90
6054;DHT22;3055;50.886;14.814;2023-03-16T08:15:26;4.80;99.90
6054;DHT22;3055;50.886;14.814;2023-03-16T08:17:53;5.10;99.90
6054;DHT22;3055;50.886;14.814;2023-03-16T08:20:20;5.30;1.00
6054;DHT22;3055;50.886;14.814;2023-03-16T08:22:47;5.30;93.50
6054;DHT22;3055;50.886;14.814;2023-03-16T08:25:15;5.60;99.90
6054;DHT22;3055;50.886;14.814;2023-03-16T08:27:44;5.80;99.90
6054;DHT22;3055;50.886;14.814;2023-03-16T08:30:13;5.90;99.90
6054;DHT22;3055;50.886;14.814;2023-03-16T08:32:41;5.90;99.90
6054;DHT22;3055;50.886;14.814;2023-03-16T08:35:12;6.00;99.90
6054;DHT22;3055;50.886;14.814;2023-03-16T08:37:40;6.10;99.90
6054;DHT22;3055;50.886;14.814;2023-03-16T08:40:08;6.10;99.90
6054;DHT22;3055;50.886;14.814;2023-03-16T08:42:38;6.20;99.90
6054;DHT22;3055;50.886;14.814;2023-03-16T08:45:07;6.10;99.90
6054;DHT22;3055;50.886;14.814;2023-03-16T08:47:35;6.20;99.90
6054;DHT22;3055;50.886;14.814;2023-03-16T08:50:06;6.30;99.90
6054;DHT22;3055;50.886;14.814;2023-03-16T08:52:33;6.40;99.90
6054;DHT22;3055;50.886;14.814;2023-03-16T08:55:01;6.50;99.90
6054;DHT22;3055;50.886;14.814;2023-03-16T08:57:29;6.70;99.90
6054;DHT22;3055;50.886;14.814;2023-03-16T08:59:57;6.80;99.90
6054;DHT22;3055;50.886;14.814;2023-03-16T09:02:24;6.80;99.90
6054;DHT22;3055;50.886;14.814;2023-03-16T09:04:52;6.80;91.40
6054;DHT22;3055;50.886;14.814;2023-03-16T09:07:20;6.60;79.50
6054;DHT22;3055;50.886;14.814;2023-03-16T09:09:47;6.50;75.00
6054;DHT22;3055;50.886;14.814;2023-03-16T09:12:15;6.40;59.30
6054;DHT22;3055;50.886;14.814;2023-03-16T09:14:48;6.30;52.70
6054;DHT22;3055;50.886;14.814;2023-03-16T09:17:15;6.30;51.80
6054;DHT22;3055;50.886;14.814;2023-03-16T09:19:43;6.40;47.00
6054;DHT22;3055;50.886;14.814;2023-03-16T09:22:10;6.60;40.70
6054;DHT22;3055;50.886;14.814;2023-03-16T09:24:39;6.50;25.40
6054;DHT22;3055;50.886;14.814;2023-03-16T09:27:06;6.50;21.80
6054;DHT22;3055;50.886;14.814;2023-03-16T09:29:33;6.70;24.10
6054;DHT22;3055;50.886;14.814;2023-03-16T09:32:00;6.90;18.60
6054;DHT22;3055;50.886;14.814;2023-03-16T09:34:28;6.90;14.50
6054;DHT22;3055;50.886;14.814;2023-03-16T09:36:55;7.10;12.70
6054;DHT22;3055;50.886;14.814;2023-03-16T09:39:22;7.20;7.50
6054;DHT22;3055;50.886;14.814;2023-03-16T09:41:54;7.30;1.30
6054;DHT22;3055;50.886;14.814;2023-03-16T09:44:30;7.40;1.00
6054;DHT22;3055;50.886;14.814;2023-03-16T09:47:01;7.30;1.00
6054;DHT22;3055;50.886;14.814;2023-03-16T09:49:34;7.30;1.00
6054;DHT22;3055;50.886;14.814;2023-03-16T09:52:10;7.30;1.00
6054;DHT22;3055;50.886;14.814;2023-03-16T09:54:44;7.30;1.00
6054;DHT22;3055;50.886;14.814;2023-03-16T09:57:22;7.20;1.00
6054;DHT22;3055;50.886;14.814;2023-03-16T09:59:50;7.10;1.00
6054;DHT22;3055;50.886;14.814;2023-03-16T10:05:16;7.40;1.00
6054;DHT22;3055;50.886;14.814;2023-03-16T10:07:52;7.70;1.00
6054;DHT22;3055;50.886;14.814;2023-03-16T10:10:32;7.80;1.00
6054;DHT22;3055;50.886;14.814;2023-03-16T10:13:07;7.80;1.00
6054;DHT22;3055;50.886;14.814;2023-03-16T10:15:38;7.90;1.00
6054;DHT22;3055;50.886;14.814;2023-03-16T10:18:11;8.10;1.00
6054;DHT22;3055;50.886;14.814;2023-03-16T10:20:40;8.10;1.00
6054;DHT22;3055;50.886;14.814;2023-03-16T10:23:15;8.10;1.00
6054;DHT22;3055;50.886;14.814;2023-03-16T10:25:45;8.10;1.00
6054;DHT22;3055;50.886;14.814;2023-03-16T10:28:17;8.20;1.00
6054;DHT22;3055;50.886;14.814;2023-03-16T10:30:44;8.30;1.00
6054;DHT22;3055;50.886;14.814;2023-03-16T10:33:19;8.40;1.00
6054;DHT22;3055;50.886;14.814;2023-03-16T10:35:51;8.40;1.00
6054;DHT22;3055;50.886;14.814;2023-03-16T10:38:28;8.20;1.00
6054;DHT22;3055;50.886;14.814;2023-03-16T10:40:58;8.20;1.00
6054;DHT22;3055;50.886;14.814;2023-03-16T10:43:27;8.20;1.00
6054;DHT22;3055;50.886;14.814;2023-03-16T10:46:00;8.30;1.00
6054;DHT22;3055;50.886;14.814;2023-03-16T10:48:30;8.30;1.00
6054;DHT22;3055;50.886;14.814;2023-03-16T10:50:59;8.40;1.00
6054;DHT22;3055;50.886;14.814;2023-03-16T10:53:32;8.30;1.00
6054;DHT22;3055;50.886;14.814;2023-03-16T10:56:08;8.30;1.00
6054;DHT22;3055;50.886;14.814;2023-03-16T10:58:40;8.30;1.00
6054;DHT22;3055;50.886;14.814;2023-03-16T11:01:16;8.40;1.00
6054;DHT22;3055;50.886;14.814;2023-03-16T11:03:48;8.60;1.00
6054;DHT22;3055;50.886;14.814;2023-03-16T11:06:19;8.50;1.00
6054;DHT22;3055;50.886;14.814;2023-03-16T11:08:47;8.60;1.00
6054;DHT22;3055;50.886;14.814;2023-03-16T11:11:18;8.70;1.00
6054;DHT22;3055;50.886;14.814;2023-03-16T11:13:48;8.60;1.00
6054;DHT22;3055;50.886;14.814;2023-03-16T11:16:23;8.60;1.00
6054;DHT22;3055;50.886;14.814;2023-03-16T11:18:54;8.70;1.00
6054;DHT22;3055;50.886;14.814;2023-03-16T11:21:33;8.80;1.00
6054;DHT22;3055;50.886;14.814;2023-03-16T11:24:05;8.90;1.00
6054;DHT22;3055;50.886;14.814;2023-03-16T11:26:38;9.20;1.00
6054;DHT22;3055;50.886;14.814;2023-03-16T11:29:15;9.40;1.00
6054;DHT22;3055;50.886;14.814;2023-03-16T11:31:47;9.60;1.00
6054;DHT22;3055;50.886;14.814;2023-03-16T11:34:20;9.60;1.00
6054;DHT22;3055;50.886;14.814;2023-03-16T11:36:52;9.50;1.00
6054;DHT22;3055;50.886;14.814;2023-03-16T11:39:30;9.50;1.00
6054;DHT22;3055;50.886;14.814;2023-03-16T11:42:08;9.50;1.00
6054;DHT22;3055;50.886;14.814;2023-03-16T11:44:44;9.40;1.00
6054;DHT22;3055;50.886;14.814;2023-03-16T11:47:29;9.50;1.00
6054;DHT22;3055;50.886;14.814;2023-03-16T11:50:00;9.50;1.00
6054;DHT22;3055;50.886;14.814;2023-03-16T11:52:42;9.50;1.00
6054;DHT22;3055;50.886;14.814;2023-03-16T11:55:22;9.50;1.00
6054;DHT22;3055;50.886;14.814;2023-03-16T11:58:02;9.80;1.00
6054;DHT22;3055;50.886;14.814;2023-03-16T12:00:44;9.90;1.00
6054;DHT22;3055;50.886;14.814;2023-03-16T12:03:38;9.90;1.00
6054;DHT22;3055;50.886;14.814;2023-03-16T12:06:16;10.10;1.00
6054;DHT22;3055;50.886;14.814;2023-03-16T12:11:48;10.50;1.00
6054;DHT22;3055;50.886;14.814;2023-03-16T12:14:23;10.60;1.00
6054;DHT22;3055;50.886;14.814;2023-03-16T12:16:56;10.50;1.00
6054;DHT22;3055;50.886;14.814;2023-03-16T12:19:36;10.20;1.00
6054;DHT22;3055;50.886;14.814;2023-03-16T12:22:13;10.20;1.00
6054;DHT22;3055;50.886;14.814;2023-03-16T12:24:44;10.30;1.00
6054;DHT22;3055;50.886;14.814;2023-03-16T12:27:18;10.40;1.00
6054;DHT22;3055;50.886;14.814;2023-03-16T12:29:55;10.50;1.00
6054;DHT22;3055;50.886;14.814;2023-03-16T12:32:34;10.40;1.00
6054;DHT22;3055;50.886;14.814;2023-03-16T12:35:17;10.40;1.00
6054;DHT22;3055;50.886;14.814;2023-03-16T12:37:55;10.50;1.00
6054;DHT22;3055;50.886;14.814;2023-03-16T12:40:31;10.80;1.00
6054;DHT22;3055;50.886;14.814;2023-03-16T12:43:08;10.90;1.00
6054;DHT22;3055;50.886;14.814;2023-03-16T12:45:44;10.70;1.00
6054;DHT22;3055;50.886;14.814;2023-03-16T12:48:22;10.80;1.00
6054;DHT22;3055;50.886;14.814;2023-03-16T12:50:53;10.80;1.00
6054;DHT22;3055;50.886;14.814;2023-03-16T12:53:39;11.00;1.00
6054;DHT22;3055;50.886;14.814;2023-03-16T12:56:09;11.10;1.00
6054;DHT22;3055;50.886;14.814;2023-03-16T12:58:41;11.00;1.00
6054;DHT22;3055;50.886;14.814;2023-03-16T13:01:10;10.90;1.00
6054;DHT22;3055;50.886;14.814;2023-03-16T13:03:42;10.90;1.00
6054;DHT22;3055;50.886;14.814;2023-03-16T13:06:20;11.10;1.00
6054;DHT22;3055;50.886;14.814;2023-03-16T13:08:51;11.50;1.00
6054;DHT22;3055;50.886;14.814;2023-03-16T13:11:19;11.90;1.00
6054;DHT22;3055;50.886;14.814;2023-03-16T13:13:48;12.20;1.00
6054;DHT22;3055;50.886;14.814;2023-03-16T13:16:28;12.50;1.00
6054;DHT22;3055;50.886;14.814;2023-03-16T13:18:57;12.50;1.00
6054;DHT22;3055;50.886;14.814;2023-03-16T13:21:34;12.60;1.00
6054;DHT22;3055;50.886;14.814;2023-03-16T13:24:24;12.10;1.00
6054;DHT22;3055;50.886;14.814;2023-03-16T13:26:57;12.20;1.00
6054;DHT22;3055;50.886;14.814;2023-03-16T13:29:28;12.50;1.00
6054;DHT22;3055;50.886;14.814;2023-03-16T13:31:57;12.70;1.00
6054;DHT22;3055;50.886;14.814;2023-03-16T13:34:29;12.90;1.00
6054;DHT22;3055;50.886;14.814;2023-03-16T13:36:57;12.90;1.00
6054;DHT22;3055;50.886;14.814;2023-03-16T13:39:28;13.10;1.00
6054;DHT22;3055;50.886;14.814;2023-03-16T13:41:57;13.40;1.00
6054;DHT22;3055;50.886;14.814;2023-03-16T13:44:25;13.50;1.00
6054;DHT22;3055;50.886;14.814;2023-03-16T13:46:53;13.60;1.00
6054;DHT22;3055;50.886;14.814;2023-03-16T13:49:20;13.80;1.00
6054;DHT22;3055;50.886;14.814;2023-03-16T13:51:49;13.80;1.00
6054;DHT22;3055;50.886;14.814;2023-03-16T13:54:23;14.10;1.00
6054;DHT22;3055;50.886;14.814;2023-03-16T13:56:51;14.30;1.00
6054;DHT22;3055;50.886;14.814;2023-03-16T13:59:19;14.80;1.00
6054;DHT22;3055;50.886;14.814;2023-03-16T14:01:53;15.00;1.00
6054;DHT22;3055;50.886;14.814;2023-03-16T14:04:24;15.20;1.00
6054;DHT22;3055;50.886;14.814;2023-03-16T14:06:56;15.50;1.00
6054;DHT22;3055;50.886;14.814;2023-03-16T14:09:25;15.60;1.00
6054;DHT22;3055;50.886;14.814;2023-03-16T14:11:54;15.40;1.00
6054;DHT22;3055;50.886;14.814;2023-03-16T14:14:28;15.20;1.00
6054;DHT22;3055;50.886;14.814;2023-03-16T14:17:04;15.60;1.00
6054;DHT22;3055;50.886;14.814;2023-03-16T14:19:38;15.60;1.00
6054;DHT22;3055;50.886;14.814;2023-03-16T14:22:17;15.60;1.00
6054;DHT22;3055;50.886;14.814;2023-03-16T14:24:52;15.70;1.00
6054;DHT22;3055;50.886;14.814;2023-03-16T14:27:24;15.50;1.00
6054;DHT22;3055;50.886;14.814;2023-03-16T14:29:58;15.50;1.00
6054;DHT22;3055;50.886;14.814;2023-03-16T14:32:28;15.70;1.00
6054;DHT22;3055;50.886;14.814;2023-03-16T14:35:18;15.60;1.00
6054;DHT22;3055;50.886;14.814;2023-03-16T14:37:47;15.50;1.00
6054;DHT22;3055;50.886;14.814;2023-03-16T14:40:25;15.90;1.00
6054;DHT22;3055;50.886;14.814;2023-03-16T14:42:54;16.00;1.00
6054;DHT22;3055;50.886;14.814;2023-03-16T14:45:26;16.20;1.00
6054;DHT22;3055;50.886;14.814;2023-03-16T14:48:02;16.50;1.00
6054;DHT22;3055;50.886;14.814;2023-03-16T14:50:30;16.10;1.00
6054;DHT22;3055;50.886;14.814;2023-03-16T14:52:59;16.10;1.00
6054;DHT22;3055;50.886;14.814;2023-03-16T14:55:28;16.00;1.00
6054;DHT22;3055;50.886;14.814;2023-03-16T14:57:55;15.50;1.00
6054;DHT22;3055;50.886;14.814;2023-03-16T15:00:23;15.40;1.00
6054;DHT22;3055;50.886;14.814;2023-03-16T15:02:59;15.40;1.00
6054;DHT22;3055;50.886;14.814;2023-03-16T15:05:32;15.40;1.00
6054;DHT22;3055;50.886;14.814;2023-03-16T15:08:01;15.60;1.00
6054;DHT22;3055;50.886;14.814;2023-03-16T15:10:31;15.60;1.00
6054;DHT22;3055;50.886;14.814;2023-03-16T15:12:59;14.90;1.00
6054;DHT22;3055;50.886;14.814;2023-03-16T15:15:38;14.30;1.00
6054;DHT22;3055;50.886;14.814;2023-03-16T15:18:07;14.10;1.00
6054;DHT22;3055;50.886;14.814;2023-03-16T15:20:39;14.30;1.00
6054;DHT22;3055;50.886;14.814;2023-03-16T15:23:11;14.40;1.00
6054;DHT22;3055;50.886;14.814;2023-03-16T15:25:40;14.50;1.00
6054;DHT22;3055;50.886;14.814;2023-03-16T15:28:13;14.60;1.00
6054;DHT22;3055;50.886;14.814;2023-03-16T15:30:43;14.50;1.00
6054;DHT22;3055;50.886;14.814;2023-03-16T15:33:10;14.10;1.00
6054;DHT22;3055;50.886;14.814;2023-03-16T15:35:38;13.80;1.00
6054;DHT22;3055;50.886;14.814;2023-03-16T15:38:12;13.90;1.00
6054;DHT22;3055;50.886;14.814;2023-03-16T15:40:41;14.00;1.00
6054;DHT22;3055;50.886;14.814;2023-03-16T15:43:11;13.70;1.00
6054;DHT22;3055;50.886;14.814;2023-03-16T15:45:38;12.80;1.00
6054;DHT22;3055;50.886;14.814;2023-03-16T15:48:05;11.90;1.00
6054;DHT22;3055;50.886;14.814;2023-03-16T15:50:33;11.10;1.00
6054;DHT22;3055;50.886;14.814;2023-03-16T15:53:03;10.40;1.00
6054;DHT22;3055;50.886;14.814;2023-03-16T15:55:35;9.90;1.00
6054;DHT22;3055;50.886;14.814;2023-03-16T15:58:04;9.40;1.00
6054;DHT22;3055;50.886;14.814;2023-03-16T16:00:33;9.10;1.00
6054;DHT22;3055;50.886;14.814;2023-03-16T16:03:01;9.00;1.00
6054;DHT22;3055;50.886;14.814;2023-03-16T16:05:29;8.80;1.00
6054;DHT22;3055;50.886;14.814;2023-03-16T16:07:57;8.70;1.00
6054;DHT22;3055;50.886;14.814;2023-03-16T16:10:25;8.60;1.00
6054;DHT22;3055;50.886;14.814;2023-03-16T16:12:55;8.40;1.00
6054;DHT22;3055;50.886;14.814;2023-03-16T16:15:24;8.20;1.00
6054;DHT22;3055;50.886;14.814;2023-03-16T16:17:54;8.10;1.00
6054;DHT22;3055;50.886;14.814;2023-03-16T16:20:24;8.10;1.00